sensor_id;sensor_type;location;lat;lon;timestamp;P1;durP1;ratioP1;P2;durP2;ratioP2
29878;SDS011;16752;53.364;-1.488;2022-11-15T03:49:44;6.60;;;2.95;;
29878;SDS011;16752;53.364;-1.488;2022-11-15T04:20:53;9.98;;;2.92;;
29878;SDS011;16752;53.364;-1.488;2022-11-15T04:23:45;9.20;;;2.60;;
29878;SDS011;16752;53.364;-1.488;2022-11-15T04:27:15;6.07;;;2.65;;
29878;SDS011;16752;53.364;-1.488;2022-11-15T07:16:22;6.30;;;2.40;;
29878;SDS011;16752;53.364;-1.488;2022-11-15T07:26:38;7.18;;;2.67;;
29878;SDS011;16752;53.364;-1.488;2022-11-15T12:08:27;3.15;;;1.45;;
29878;SDS011;16752;53.364;-1.488;2022-11-15T13:12:03;2.65;;;1.67;;
29878;SDS011;16752;53.364;-1.488;2022-11-15T13:15:51;2.95;;;2.00;;
29878;SDS011;16752;53.364;-1.488;2022-11-15T13:42:57;2.75;;;2.38;;
29878;SDS011;16752;53.364;-1.488;2022-11-15T13:45:23;2.10;;;1.90;;
29878;SDS011;16752;53.364;-1.488;2022-11-15T13:47:57;2.92;;;2.03;;
29878;SDS011;16752;53.364;-1.488;2022-11-15T13:50:57;2.38;;;1.45;;
29878;SDS011;16752;53.364;-1.488;2022-11-15T13:53:30;2.75;;;1.10;;
29878;SDS011;16752;53.364;-1.488;2022-11-15T14:02:54;1.35;;;1.25;;
29878;SDS011;16752;53.364;-1.488;2022-11-15T14:15:51;5.03;;;1.85;;
29878;SDS011;16752;53.364;-1.488;2022-11-15T14:22:57;4.38;;;3.67;;
29878;SDS011;16752;53.364;-1.488;2022-11-15T14:25:55;2.97;;;2.33;;
29878;SDS011;16752;53.364;-1.488;2022-11-15T14:30:57;4.38;;;2.03;;
29878;SDS011;16752;53.364;-1.488;2022-11-15T14:36:24;2.03;;;1.92;;
29878;SDS011;16752;53.364;-1.488;2022-11-15T14:45:40;2.28;;;1.02;;
29878;SDS011;16752;53.364;-1.488;2022-11-15T14:48:23;1.58;;;1.25;;
29878;SDS011;16752;53.364;-1.488;2022-11-15T14:51:15;1.73;;;1.60;;
29878;SDS011;16752;53.364;-1.488;2022-11-15T14:56:30;2.17;;;0.70;;
29878;SDS011;16752;53.364;-1.488;2022-11-15T15:41:50;3.88;;;1.17;;
29878;SDS011;16752;53.364;-1.488;2022-11-15T15:44:34;1.95;;;1.10;;
29878;SDS011;16752;53.364;-1.488;2022-11-15T15:47:54;2.53;;;1.67;;
29878;SDS011;16752;53.364;-1.488;2022-11-15T15:50:24;5.28;;;2.25;;
29878;SDS011;16752;53.364;-1.488;2022-11-15T15:53:01;3.25;;;1.23;;
29878;SDS011;16752;53.364;-1.488;2022-11-15T15:55:38;2.97;;;1.23;;
29878;SDS011;16752;53.364;-1.488;2022-11-15T15:58:04;3.33;;;1.23;;
29878;SDS011;16752;53.364;-1.488;2022-11-15T16:00:34;3.50;;;1.40;;
29878;SDS011;16752;53.364;-1.488;2022-11-15T16:03:02;4.35;;;1.98;;
29878;SDS011;16752;53.364;-1.488;2022-11-15T16:05:29;4.03;;;1.80;;
29878;SDS011;16752;53.364;-1.488;2022-11-15T16:08:02;4.10;;;2.40;;
29878;SDS011;16752;53.364;-1.488;2022-11-15T16:10:32;20.70;;;10.68;;
29878;SDS011;16752;53.364;-1.488;2022-11-15T16:13:02;26.45;;;13.60;;
29878;SDS011;16752;53.364;-1.488;2022-11-15T16:15:29;24.98;;;15.82;;
29878;SDS011;16752;53.364;-1.488;2022-11-15T16:18:04;26.55;;;15.80;;
29878;SDS011;16752;53.364;-1.488;2022-11-15T16:25:54;31.50;;;18.08;;
29878;SDS011;16752;53.364;-1.488;2022-11-15T16:28:21;32.30;;;20.00;;
29878;SDS011;16752;53.364;-1.488;2022-11-15T16:30:49;33.13;;;20.60;;
29878;SDS011;16752;53.364;-1.488;2022-11-15T16:33:53;41.50;;;23.73;;
29878;SDS011;16752;53.364;-1.488;2022-11-15T16:36:23;37.28;;;25.20;;
29878;SDS011;16752;53.364;-1.488;2022-11-15T16:39:03;41.13;;;27.20;;
29878;SDS011;16752;53.364;-1.488;2022-11-15T16:41:37;39.05;;;26.08;;
29878;SDS011;16752;53.364;-1.488;2022-11-15T16:44:25;39.92;;;26.10;;
29878;SDS011;16752;53.364;-1.488;2022-11-15T16:46:51;33.55;;;21.75;;
29878;SDS011;16752;53.364;-1.488;2022-11-15T16:59:59;25.13;;;14.48;;
29878;SDS011;16752;53.364;-1.488;2022-11-15T17:03:24;20.92;;;14.68;;
29878;SDS011;16752;53.364;-1.488;2022-11-15T17:05:56;21.45;;;10.40;;
29878;SDS011;16752;53.364;-1.488;2022-11-15T17:08:23;26.15;;;11.63;;
29878;SDS011;16752;53.364;-1.488;2022-11-15T17:11:15;12.73;;;7.85;;
29878;SDS011;16752;53.364;-1.488;2022-11-15T17:19:20;17.58;;;10.32;;
29878;SDS011;16752;53.364;-1.488;2022-11-15T17:21:59;15.95;;;8.80;;
29878;SDS011;16752;53.364;-1.488;2022-11-15T17:24:35;21.40;;;10.50;;
29878;SDS011;16752;53.364;-1.488;2022-11-15T17:30:46;17.38;;;8.90;;
29878;SDS011;16752;53.364;-1.488;2022-11-15T17:41:56;16.08;;;7.22;;
29878;SDS011;16752;53.364;-1.488;2022-11-15T17:47:39;20.70;;;8.27;;
29878;SDS011;16752;53.364;-1.488;2022-11-15T17:54:02;14.43;;;7.80;;
29878;SDS011;16752;53.364;-1.488;2022-11-15T17:56:36;16.95;;;8.00;;
29878;SDS011;16752;53.364;-1.488;2022-11-15T17:59:57;16.92;;;8.50;;
29878;SDS011;16752;53.364;-1.488;2022-11-15T18:03:01;16.27;;;8.20;;
29878;SDS011;16752;53.364;-1.488;2022-11-15T18:05:48;25.55;;;9.23;;
29878;SDS011;16752;53.364;-1.488;2022-11-15T18:08:30;12.02;;;6.88;;
29878;SDS011;16752;53.364;-1.488;2022-11-15T18:11:19;30.40;;;7.85;;
29878;SDS011;16752;53.364;-1.488;2022-11-15T18:18:47;18.75;;;8.13;;
29878;SDS011;16752;53.364;-1.488;2022-11-15T18:22:05;16.85;;;8.23;;
29878;SDS011;16752;53.364;-1.488;2022-11-15T19:47:55;36.00;;;17.50;;
29878;SDS011;16752;53.364;-1.488;2022-11-15T19:55:18;42.08;;;24.95;;
29878;SDS011;16752;53.364;-1.488;2022-11-15T19:58:01;45.75;;;25.85;;
29878;SDS011;16752;53.364;-1.488;2022-11-15T20:08:02;44.88;;;26.38;;
29878;SDS011;16752;53.364;-1.488;2022-11-15T20:10:54;47.60;;;25.85;;
29878;SDS011;16752;53.364;-1.488;2022-11-15T20:14:15;42.90;;;24.38;;
29878;SDS011;16752;53.364;-1.488;2022-11-15T21:30:37;56.83;;;31.83;;
29878;SDS011;16752;53.364;-1.488;2022-11-15T21:33:07;47.88;;;28.45;;
29878;SDS011;16752;53.364;-1.488;2022-11-15T21:42:46;23.90;;;15.40;;
29878;SDS011;16752;53.364;-1.488;2022-11-15T21:45:12;26.65;;;16.65;;
29878;SDS011;16752;53.364;-1.488;2022-11-15T21:47:38;26.83;;;16.23;;
29878;SDS011;16752;53.364;-1.488;2022-11-15T21:50:04;30.27;;;17.25;;
29878;SDS011;16752;53.364;-1.488;2022-11-15T21:52:48;26.30;;;17.05;;
29878;SDS011;16752;53.364;-1.488;2022-11-15T21:55:23;28.67;;;17.13;;
29878;SDS011;16752;53.364;-1.488;2022-11-15T21:57:53;27.02;;;17.15;;
29878;SDS011;16752;53.364;-1.488;2022-11-15T22:00:19;23.90;;;13.45;;
29878;SDS011;16752;53.364;-1.488;2022-11-15T22:03:07;18.45;;;11.48;;
29878;SDS011;16752;53.364;-1.488;2022-11-15T22:05:33;19.10;;;11.45;;
29878;SDS011;16752;53.364;-1.488;2022-11-15T22:07:59;17.98;;;11.05;;
29878;SDS011;16752;53.364;-1.488;2022-11-15T22:10:25;17.05;;;8.93;;
29878;SDS011;16752;53.364;-1.488;2022-11-15T22:12:50;15.13;;;8.90;;
29878;SDS011;16752;53.364;-1.488;2022-11-15T22:15:18;17.17;;;9.93;;
29878;SDS011;16752;53.364;-1.488;2022-11-15T22:17:44;14.30;;;9.13;;
29878;SDS011;16752;53.364;-1.488;2022-11-15T22:20:24;15.52;;;9.55;;
29878;SDS011;16752;53.364;-1.488;2022-11-15T22:22:57;15.18;;;9.65;;
29878;SDS011;16752;53.364;-1.488;2022-11-15T22:25:27;16.55;;;8.88;;
29878;SDS011;16752;53.364;-1.488;2022-11-15T22:27:53;11.70;;;8.27;;
29878;SDS011;16752;53.364;-1.488;2022-11-15T22:30:19;15.88;;;8.60;;
29878;SDS011;16752;53.364;-1.488;2022-11-15T22:32:46;13.50;;;7.70;;
29878;SDS011;16752;53.364;-1.488;2022-11-15T22:35:11;13.10;;;8.05;;
29878;SDS011;16752;53.364;-1.488;2022-11-15T22:37:39;11.60;;;8.02;;
29878;SDS011;16752;53.364;-1.488;2022-11-15T22:40:05;14.23;;;7.25;;
29878;SDS011;16752;53.364;-1.488;2022-11-15T22:42:31;14.15;;;7.38;;
29878;SDS011;16752;53.364;-1.488;2022-11-15T22:45:03;9.82;;;7.20;;
29878;SDS011;16752;53.364;-1.488;2022-11-15T22:47:29;17.80;;;7.63;;
29878;SDS011;16752;53.364;-1.488;2022-11-15T22:49:57;14.23;;;8.60;;
29878;SDS011;16752;53.364;-1.488;2022-11-15T22:52:22;12.35;;;6.85;;
29878;SDS011;16752;53.364;-1.488;2022-11-15T22:54:51;9.27;;;5.07;;
29878;SDS011;16752;53.364;-1.488;2022-11-15T22:57:19;9.15;;;5.72;;
29878;SDS011;16752;53.364;-1.488;2022-11-15T22:59:45;10.07;;;6.00;;
29878;SDS011;16752;53.364;-1.488;2022-11-15T23:02:11;12.35;;;5.95;;
29878;SDS011;16752;53.364;-1.488;2022-11-15T23:04:37;10.80;;;5.07;;
29878;SDS011;16752;53.364;-1.488;2022-11-15T23:07:03;9.48;;;5.35;;
29878;SDS011;16752;53.364;-1.488;2022-11-15T23:09:29;9.82;;;4.55;;
29878;SDS011;16752;53.364;-1.488;2022-11-15T23:11:57;7.75;;;5.03;;
29878;SDS011;16752;53.364;-1.488;2022-11-15T23:14:41;9.73;;;6.07;;
29878;SDS011;16752;53.364;-1.488;2022-11-15T23:17:09;7.75;;;4.65;;
29878;SDS011;16752;53.364;-1.488;2022-11-15T23:19:35;9.95;;;4.82;;
29878;SDS011;16752;53.364;-1.488;2022-11-15T23:22:04;10.45;;;5.05;;
29878;SDS011;16752;53.364;-1.488;2022-11-15T23:24:51;9.25;;;5.22;;
29878;SDS011;16752;53.364;-1.488;2022-11-15T23:27:17;9.40;;;4.72;;
29878;SDS011;16752;53.364;-1.488;2022-11-15T23:29:48;11.18;;;5.47;;
29878;SDS011;16752;53.364;-1.488;2022-11-15T23:32:54;7.53;;;4.57;;
29878;SDS011;16752;53.364;-1.488;2022-11-15T23:35:38;6.85;;;5.15;;
29878;SDS011;16752;53.364;-1.488;2022-11-15T23:38:06;9.73;;;5.68;;
29878;SDS011;16752;53.364;-1.488;2022-11-15T23:40:50;13.13;;;5.47;;
29878;SDS011;16752;53.364;-1.488;2022-11-15T23:43:16;9.80;;;5.50;;
29878;SDS011;16752;53.364;-1.488;2022-11-15T23:45:48;8.43;;;5.95;;
29878;SDS011;16752;53.364;-1.488;2022-11-15T23:48:16;9.05;;;5.47;;
29878;SDS011;16752;53.364;-1.488;2022-11-15T23:50:55;8.18;;;5.18;;
29878;SDS011;16752;53.364;-1.488;2022-11-15T23:53:20;7.72;;;4.35;;
29878;SDS011;16752;53.364;-1.488;2022-11-15T23:55:58;5.60;;;4.30;;
29878;SDS011;16752;53.364;-1.488;2022-11-15T23:58:27;8.93;;;4.78;;
